sensor_id;sensor_type;location;lat;lon;timestamp;P1;durP1;ratioP1;P2;durP2;ratioP2
5125;SDS011;63008;53.112;8.896;2022-10-16T00:01:44;6.90;;;2.30;;
5125;SDS011;63008;53.112;8.896;2022-10-16T00:03:46;6.07;;;1.80;;
5125;SDS011;63008;53.112;8.896;2022-10-16T00:05:47;2.00;;;1.90;;
5125;SDS011;63008;53.112;8.896;2022-10-16T00:07:49;8.00;;;1.80;;
5125;SDS011;63008;53.112;8.896;2022-10-16T00:09:50;4.33;;;1.90;;
5125;SDS011;63008;53.112;8.896;2022-10-16T00:11:51;3.97;;;1.47;;
5125;SDS011;63008;53.112;8.896;2022-10-16T00:13:54;3.93;;;1.87;;
5125;SDS011;63008;53.112;8.896;2022-10-16T00:15:57;2.20;;;2.00;;
5125;SDS011;63008;53.112;8.896;2022-10-16T00:18:00;2.13;;;1.93;;
5125;SDS011;63008;53.112;8.896;2022-10-16T00:20:01;3.93;;;1.87;;
5125;SDS011;63008;53.112;8.896;2022-10-16T00:22:02;7.03;;;2.60;;
5125;SDS011;63008;53.112;8.896;2022-10-16T00:24:05;2.50;;;1.50;;
5125;SDS011;63008;53.112;8.896;2022-10-16T00:26:10;1.87;;;1.20;;
5125;SDS011;63008;53.112;8.896;2022-10-16T00:28:13;2.07;;;1.60;;
5125;SDS011;63008;53.112;8.896;2022-10-16T00:30:14;7.03;;;1.83;;
5125;SDS011;63008;53.112;8.896;2022-10-16T00:32:15;2.33;;;1.50;;
5125;SDS011;63008;53.112;8.896;2022-10-16T00:34:16;9.07;;;2.27;;
5125;SDS011;63008;53.112;8.896;2022-10-16T00:36:18;8.43;;;1.83;;
5125;SDS011;63008;53.112;8.896;2022-10-16T00:38:21;3.40;;;1.20;;
5125;SDS011;63008;53.112;8.896;2022-10-16T00:40:22;1.80;;;1.33;;
5125;SDS011;63008;53.112;8.896;2022-10-16T00:42:23;2.70;;;1.80;;
5125;SDS011;63008;53.112;8.896;2022-10-16T00:44:41;6.63;;;1.50;;
5125;SDS011;63008;53.112;8.896;2022-10-16T00:46:54;2.50;;;1.90;;
5125;SDS011;63008;53.112;8.896;2022-10-16T00:49:14;2.97;;;1.63;;
5125;SDS011;63008;53.112;8.896;2022-10-16T00:51:17;2.97;;;1.60;;
5125;SDS011;63008;53.112;8.896;2022-10-16T00:53:21;2.50;;;1.80;;
5125;SDS011;63008;53.112;8.896;2022-10-16T00:55:24;2.60;;;1.97;;
5125;SDS011;63008;53.112;8.896;2022-10-16T00:57:26;6.13;;;1.93;;
5125;SDS011;63008;53.112;8.896;2022-10-16T00:59:31;7.33;;;1.60;;
5125;SDS011;63008;53.112;8.896;2022-10-16T01:01:35;2.40;;;1.83;;
5125;SDS011;63008;53.112;8.896;2022-10-16T01:03:36;7.23;;;1.97;;
5125;SDS011;63008;53.112;8.896;2022-10-16T01:05:45;6.20;;;1.77;;
5125;SDS011;63008;53.112;8.896;2022-10-16T01:08:10;2.83;;;1.60;;
5125;SDS011;63008;53.112;8.896;2022-10-16T01:12:35;3.43;;;1.67;;
5125;SDS011;63008;53.112;8.896;2022-10-16T01:17:11;1.67;;;1.57;;
5125;SDS011;63008;53.112;8.896;2022-10-16T01:19:20;1.57;;;1.47;;
5125;SDS011;63008;53.112;8.896;2022-10-16T01:21:26;5.30;;;1.90;;
5125;SDS011;63008;53.112;8.896;2022-10-16T01:23:38;2.90;;;1.63;;
5125;SDS011;63008;53.112;8.896;2022-10-16T01:25:52;1.60;;;1.50;;
5125;SDS011;63008;53.112;8.896;2022-10-16T01:28:19;3.73;;;1.40;;
5125;SDS011;63008;53.112;8.896;2022-10-16T01:30:26;5.17;;;1.83;;
5125;SDS011;63008;53.112;8.896;2022-10-16T01:32:33;5.60;;;1.90;;
5125;SDS011;63008;53.112;8.896;2022-10-16T01:34:42;2.37;;;2.00;;
5125;SDS011;63008;53.112;8.896;2022-10-16T01:36:52;2.73;;;1.60;;
5125;SDS011;63008;53.112;8.896;2022-10-16T01:38:58;2.50;;;1.53;;
5125;SDS011;63008;53.112;8.896;2022-10-16T01:41:04;9.63;;;1.90;;
5125;SDS011;63008;53.112;8.896;2022-10-16T01:43:12;8.50;;;1.97;;
5125;SDS011;63008;53.112;8.896;2022-10-16T01:45:18;5.63;;;1.97;;
5125;SDS011;63008;53.112;8.896;2022-10-16T01:47:22;4.93;;;1.73;;
5125;SDS011;63008;53.112;8.896;2022-10-16T01:49:26;3.20;;;1.60;;
5125;SDS011;63008;53.112;8.896;2022-10-16T01:51:31;4.20;;;1.70;;
5125;SDS011;63008;53.112;8.896;2022-10-16T01:53:33;4.40;;;1.67;;
5125;SDS011;63008;53.112;8.896;2022-10-16T01:55:36;3.33;;;1.90;;
5125;SDS011;63008;53.112;8.896;2022-10-16T01:57:43;3.00;;;1.93;;
5125;SDS011;63008;53.112;8.896;2022-10-16T01:59:49;1.73;;;1.63;;
5125;SDS011;63008;53.112;8.896;2022-10-16T02:01:56;3.20;;;2.03;;
5125;SDS011;63008;53.112;8.896;2022-10-16T02:04:07;3.53;;;2.17;;
5125;SDS011;63008;53.112;8.896;2022-10-16T02:06:13;4.80;;;2.20;;
5125;SDS011;63008;53.112;8.896;2022-10-16T02:08:15;4.60;;;1.50;;
5125;SDS011;63008;53.112;8.896;2022-10-16T02:10:16;2.70;;;1.73;;
5125;SDS011;63008;53.112;8.896;2022-10-16T02:12:27;2.03;;;1.83;;
5125;SDS011;63008;53.112;8.896;2022-10-16T02:14:30;4.20;;;1.67;;
5125;SDS011;63008;53.112;8.896;2022-10-16T02:16:39;3.37;;;1.70;;
5125;SDS011;63008;53.112;8.896;2022-10-16T02:18:45;3.23;;;2.13;;
5125;SDS011;63008;53.112;8.896;2022-10-16T02:20:51;9.80;;;2.07;;
5125;SDS011;63008;53.112;8.896;2022-10-16T02:22:57;5.17;;;2.23;;
5125;SDS011;63008;53.112;8.896;2022-10-16T02:25:03;4.80;;;1.60;;
5125;SDS011;63008;53.112;8.896;2022-10-16T02:27:10;7.30;;;2.20;;
5125;SDS011;63008;53.112;8.896;2022-10-16T02:29:16;4.80;;;2.40;;
5125;SDS011;63008;53.112;8.896;2022-10-16T02:31:23;3.00;;;2.40;;
5125;SDS011;63008;53.112;8.896;2022-10-16T02:33:29;5.40;;;2.00;;
5125;SDS011;63008;53.112;8.896;2022-10-16T02:35:32;3.93;;;1.70;;
5125;SDS011;63008;53.112;8.896;2022-10-16T02:37:34;14.17;;;3.07;;
5125;SDS011;63008;53.112;8.896;2022-10-16T02:39:36;2.93;;;1.83;;
5125;SDS011;63008;53.112;8.896;2022-10-16T02:41:38;4.00;;;1.63;;
5125;SDS011;63008;53.112;8.896;2022-10-16T02:43:39;4.47;;;2.63;;
5125;SDS011;63008;53.112;8.896;2022-10-16T02:45:40;6.60;;;2.50;;
5125;SDS011;63008;53.112;8.896;2022-10-16T02:47:41;2.80;;;2.03;;
5125;SDS011;63008;53.112;8.896;2022-10-16T02:49:42;7.23;;;2.43;;
5125;SDS011;63008;53.112;8.896;2022-10-16T02:51:43;2.77;;;2.10;;
5125;SDS011;63008;53.112;8.896;2022-10-16T02:53:44;2.60;;;2.10;;
5125;SDS011;63008;53.112;8.896;2022-10-16T02:55:45;5.00;;;2.30;;
5125;SDS011;63008;53.112;8.896;2022-10-16T02:57:46;2.73;;;2.00;;
5125;SDS011;63008;53.112;8.896;2022-10-16T02:59:47;6.90;;;2.10;;
5125;SDS011;63008;53.112;8.896;2022-10-16T03:01:48;9.00;;;1.87;;
5125;SDS011;63008;53.112;8.896;2022-10-16T03:03:49;3.73;;;2.40;;
5125;SDS011;63008;53.112;8.896;2022-10-16T03:05:51;4.00;;;2.70;;
5125;SDS011;63008;53.112;8.896;2022-10-16T03:07:52;5.27;;;2.30;;
5125;SDS011;63008;53.112;8.896;2022-10-16T03:09:53;5.87;;;2.50;;
5125;SDS011;63008;53.112;8.896;2022-10-16T03:11:55;6.40;;;2.37;;
5125;SDS011;63008;53.112;8.896;2022-10-16T03:13:56;3.00;;;2.17;;
5125;SDS011;63008;53.112;8.896;2022-10-16T03:15:57;4.60;;;2.50;;
5125;SDS011;63008;53.112;8.896;2022-10-16T03:17:58;4.23;;;2.20;;
5125;SDS011;63008;53.112;8.896;2022-10-16T03:19:59;6.90;;;2.47;;
5125;SDS011;63008;53.112;8.896;2022-10-16T03:22:00;4.20;;;2.07;;
5125;SDS011;63008;53.112;8.896;2022-10-16T03:24:01;7.97;;;2.43;;
5125;SDS011;63008;53.112;8.896;2022-10-16T03:26:02;5.30;;;2.40;;
5125;SDS011;63008;53.112;8.896;2022-10-16T03:28:03;3.67;;;2.67;;
5125;SDS011;63008;53.112;8.896;2022-10-16T03:30:04;3.10;;;2.40;;
5125;SDS011;63008;53.112;8.896;2022-10-16T03:32:06;2.40;;;2.20;;
5125;SDS011;63008;53.112;8.896;2022-10-16T03:34:07;18.03;;;2.63;;
5125;SDS011;63008;53.112;8.896;2022-10-16T03:36:08;3.90;;;2.53;;
5125;SDS011;63008;53.112;8.896;2022-10-16T03:38:09;4.97;;;3.10;;
5125;SDS011;63008;53.112;8.896;2022-10-16T03:40:10;3.63;;;3.10;;
5125;SDS011;63008;53.112;8.896;2022-10-16T03:42:11;6.90;;;3.17;;
5125;SDS011;63008;53.112;8.896;2022-10-16T03:44:13;3.23;;;2.77;;
5125;SDS011;63008;53.112;8.896;2022-10-16T03:46:15;5.83;;;2.80;;
5125;SDS011;63008;53.112;8.896;2022-10-16T03:48:16;5.67;;;3.20;;
5125;SDS011;63008;53.112;8.896;2022-10-16T03:50:17;7.43;;;3.50;;
5125;SDS011;63008;53.112;8.896;2022-10-16T03:52:18;6.40;;;3.30;;
5125;SDS011;63008;53.112;8.896;2022-10-16T03:54:19;5.63;;;3.53;;
5125;SDS011;63008;53.112;8.896;2022-10-16T03:56:20;8.53;;;3.60;;
5125;SDS011;63008;53.112;8.896;2022-10-16T03:58:20;11.03;;;4.57;;
5125;SDS011;63008;53.112;8.896;2022-10-16T04:00:21;8.83;;;3.97;;
5125;SDS011;63008;53.112;8.896;2022-10-16T04:02:24;6.47;;;4.57;;
5125;SDS011;63008;53.112;8.896;2022-10-16T04:04:25;6.30;;;4.10;;
5125;SDS011;63008;53.112;8.896;2022-10-16T04:06:26;16.53;;;5.20;;
5125;SDS011;63008;53.112;8.896;2022-10-16T04:08:27;6.50;;;5.03;;
5125;SDS011;63008;53.112;8.896;2022-10-16T04:10:28;9.10;;;4.70;;
5125;SDS011;63008;53.112;8.896;2022-10-16T04:12:29;7.00;;;5.50;;
5125;SDS011;63008;53.112;8.896;2022-10-16T04:14:30;7.13;;;5.10;;
5125;SDS011;63008;53.112;8.896;2022-10-16T04:16:32;7.93;;;6.03;;
5125;SDS011;63008;53.112;8.896;2022-10-16T04:18:33;9.10;;;5.60;;
5125;SDS011;63008;53.112;8.896;2022-10-16T04:20:34;10.83;;;6.13;;
5125;SDS011;63008;53.112;8.896;2022-10-16T04:22:35;10.70;;;6.10;;
5125;SDS011;63008;53.112;8.896;2022-10-16T04:24:36;14.53;;;6.30;;
5125;SDS011;63008;53.112;8.896;2022-10-16T04:26:37;9.50;;;7.10;;
5125;SDS011;63008;53.112;8.896;2022-10-16T04:28:38;10.20;;;6.40;;
5125;SDS011;63008;53.112;8.896;2022-10-16T04:30:39;8.90;;;5.77;;
5125;SDS011;63008;53.112;8.896;2022-10-16T04:32:40;14.27;;;8.20;;
5125;SDS011;63008;53.112;8.896;2022-10-16T04:34:41;18.63;;;7.50;;
5125;SDS011;63008;53.112;8.896;2022-10-16T04:36:42;10.20;;;6.43;;
5125;SDS011;63008;53.112;8.896;2022-10-16T04:38:43;12.90;;;7.90;;
5125;SDS011;63008;53.112;8.896;2022-10-16T04:40:44;11.07;;;7.00;;
5125;SDS011;63008;53.112;8.896;2022-10-16T04:42:45;14.47;;;7.50;;
5125;SDS011;63008;53.112;8.896;2022-10-16T04:44:46;11.83;;;7.80;;
5125;SDS011;63008;53.112;8.896;2022-10-16T04:46:47;12.80;;;7.80;;
5125;SDS011;63008;53.112;8.896;2022-10-16T04:48:50;12.83;;;7.20;;
5125;SDS011;63008;53.112;8.896;2022-10-16T04:50:51;15.13;;;8.23;;
5125;SDS011;63008;53.112;8.896;2022-10-16T04:52:52;15.73;;;7.97;;
5125;SDS011;63008;53.112;8.896;2022-10-16T04:54:53;15.83;;;8.30;;
5125;SDS011;63008;53.112;8.896;2022-10-16T04:56:55;11.60;;;8.17;;
5125;SDS011;63008;53.112;8.896;2022-10-16T04:58:56;17.37;;;8.87;;
5125;SDS011;63008;53.112;8.896;2022-10-16T05:00:57;20.93;;;8.70;;
5125;SDS011;63008;53.112;8.896;2022-10-16T05:02:59;14.27;;;7.90;;
5125;SDS011;63008;53.112;8.896;2022-10-16T05:05:01;14.63;;;8.70;;
5125;SDS011;63008;53.112;8.896;2022-10-16T05:07:02;12.20;;;8.10;;
5125;SDS011;63008;53.112;8.896;2022-10-16T05:09:03;14.10;;;8.90;;
5125;SDS011;63008;53.112;8.896;2022-10-16T05:11:05;18.10;;;10.73;;
5125;SDS011;63008;53.112;8.896;2022-10-16T05:13:06;16.20;;;9.10;;
5125;SDS011;63008;53.112;8.896;2022-10-16T05:15:07;14.37;;;9.47;;
5125;SDS011;63008;53.112;8.896;2022-10-16T05:17:08;14.17;;;9.90;;
5125;SDS011;63008;53.112;8.896;2022-10-16T05:19:09;11.23;;;9.67;;
5125;SDS011;63008;53.112;8.896;2022-10-16T05:21:10;16.13;;;10.20;;
5125;SDS011;63008;53.112;8.896;2022-10-16T05:23:11;19.57;;;10.47;;
5125;SDS011;63008;53.112;8.896;2022-10-16T05:25:12;22.43;;;10.17;;
5125;SDS011;63008;53.112;8.896;2022-10-16T05:27:14;23.40;;;10.13;;
5125;SDS011;63008;53.112;8.896;2022-10-16T05:29:19;13.30;;;9.83;;
5125;SDS011;63008;53.112;8.896;2022-10-16T05:31:20;15.27;;;10.10;;
5125;SDS011;63008;53.112;8.896;2022-10-16T05:33:22;19.10;;;9.73;;
5125;SDS011;63008;53.112;8.896;2022-10-16T05:35:24;13.50;;;10.13;;
5125;SDS011;63008;53.112;8.896;2022-10-16T05:37:27;19.70;;;9.90;;
5125;SDS011;63008;53.112;8.896;2022-10-16T05:39:28;13.20;;;9.90;;
5125;SDS011;63008;53.112;8.896;2022-10-16T05:41:29;10.57;;;8.93;;
5125;SDS011;63008;53.112;8.896;2022-10-16T05:43:30;18.20;;;9.67;;
5125;SDS011;63008;53.112;8.896;2022-10-16T05:45:32;16.30;;;9.50;;
5125;SDS011;63008;53.112;8.896;2022-10-16T05:47:33;17.10;;;9.87;;
5125;SDS011;63008;53.112;8.896;2022-10-16T05:49:34;13.40;;;9.47;;
5125;SDS011;63008;53.112;8.896;2022-10-16T05:51:35;15.80;;;11.30;;
5125;SDS011;63008;53.112;8.896;2022-10-16T05:53:36;16.20;;;9.47;;
5125;SDS011;63008;53.112;8.896;2022-10-16T05:55:38;14.93;;;9.97;;
5125;SDS011;63008;53.112;8.896;2022-10-16T05:57:39;15.47;;;11.00;;
5125;SDS011;63008;53.112;8.896;2022-10-16T05:59:40;11.93;;;9.87;;
5125;SDS011;63008;53.112;8.896;2022-10-16T06:01:41;14.93;;;10.80;;
5125;SDS011;63008;53.112;8.896;2022-10-16T06:03:42;14.10;;;9.60;;
5125;SDS011;63008;53.112;8.896;2022-10-16T06:05:43;20.03;;;10.23;;
5125;SDS011;63008;53.112;8.896;2022-10-16T06:07:44;16.87;;;10.07;;
5125;SDS011;63008;53.112;8.896;2022-10-16T06:09:49;18.47;;;10.07;;
5125;SDS011;63008;53.112;8.896;2022-10-16T06:11:50;16.07;;;10.30;;
5125;SDS011;63008;53.112;8.896;2022-10-16T06:13:51;11.13;;;9.90;;
5125;SDS011;63008;53.112;8.896;2022-10-16T06:15:56;13.97;;;9.23;;
5125;SDS011;63008;53.112;8.896;2022-10-16T06:17:58;13.60;;;9.47;;
5125;SDS011;63008;53.112;8.896;2022-10-16T06:19:59;10.43;;;8.40;;
5125;SDS011;63008;53.112;8.896;2022-10-16T06:22:00;10.20;;;8.00;;
5125;SDS011;63008;53.112;8.896;2022-10-16T06:24:03;9.10;;;8.20;;
5125;SDS011;63008;53.112;8.896;2022-10-16T06:26:08;14.53;;;9.53;;
5125;SDS011;63008;53.112;8.896;2022-10-16T06:28:12;9.80;;;7.93;;
5125;SDS011;63008;53.112;8.896;2022-10-16T06:30:14;18.93;;;9.00;;
5125;SDS011;63008;53.112;8.896;2022-10-16T06:32:15;9.60;;;8.20;;
5125;SDS011;63008;53.112;8.896;2022-10-16T06:34:16;11.10;;;9.53;;
5125;SDS011;63008;53.112;8.896;2022-10-16T06:36:17;13.07;;;7.93;;
5125;SDS011;63008;53.112;8.896;2022-10-16T06:38:18;10.33;;;8.33;;
5125;SDS011;63008;53.112;8.896;2022-10-16T06:40:19;10.57;;;9.10;;
5125;SDS011;63008;53.112;8.896;2022-10-16T06:42:20;10.53;;;7.77;;
5125;SDS011;63008;53.112;8.896;2022-10-16T06:44:21;16.53;;;9.00;;
5125;SDS011;63008;53.112;8.896;2022-10-16T06:46:23;11.27;;;8.07;;
5125;SDS011;63008;53.112;8.896;2022-10-16T06:48:30;13.00;;;8.60;;
5125;SDS011;63008;53.112;8.896;2022-10-16T06:50:31;11.00;;;7.93;;
5125;SDS011;63008;53.112;8.896;2022-10-16T06:52:32;14.33;;;7.70;;
5125;SDS011;63008;53.112;8.896;2022-10-16T06:54:34;9.17;;;8.20;;
5125;SDS011;63008;53.112;8.896;2022-10-16T06:56:35;12.90;;;8.60;;
5125;SDS011;63008;53.112;8.896;2022-10-16T06:58:36;11.47;;;8.20;;
5125;SDS011;63008;53.112;8.896;2022-10-16T07:00:37;10.70;;;8.00;;
5125;SDS011;63008;53.112;8.896;2022-10-16T07:02:38;8.73;;;7.83;;
5125;SDS011;63008;53.112;8.896;2022-10-16T07:04:39;8.43;;;7.63;;
5125;SDS011;63008;53.112;8.896;2022-10-16T07:06:40;8.10;;;7.40;;
5125;SDS011;63008;53.112;8.896;2022-10-16T07:08:42;10.43;;;7.47;;
5125;SDS011;63008;53.112;8.896;2022-10-16T07:10:44;14.10;;;7.50;;
5125;SDS011;63008;53.112;8.896;2022-10-16T07:12:45;9.80;;;7.30;;
5125;SDS011;63008;53.112;8.896;2022-10-16T07:14:46;10.20;;;8.63;;
5125;SDS011;63008;53.112;8.896;2022-10-16T07:16:47;9.13;;;6.90;;
5125;SDS011;63008;53.112;8.896;2022-10-16T07:18:48;11.20;;;8.40;;
5125;SDS011;63008;53.112;8.896;2022-10-16T07:20:50;8.03;;;6.63;;
5125;SDS011;63008;53.112;8.896;2022-10-16T07:22:51;12.73;;;7.83;;
5125;SDS011;63008;53.112;8.896;2022-10-16T07:24:52;11.30;;;7.10;;
5125;SDS011;63008;53.112;8.896;2022-10-16T07:26:53;8.40;;;7.10;;
5125;SDS011;63008;53.112;8.896;2022-10-16T07:28:54;12.00;;;6.93;;
5125;SDS011;63008;53.112;8.896;2022-10-16T07:30:55;12.67;;;7.40;;
5125;SDS011;63008;53.112;8.896;2022-10-16T07:33:00;7.67;;;6.83;;
5125;SDS011;63008;53.112;8.896;2022-10-16T07:35:01;14.77;;;7.00;;
5125;SDS011;63008;53.112;8.896;2022-10-16T07:37:02;7.37;;;5.67;;
5125;SDS011;63008;53.112;8.896;2022-10-16T07:39:03;9.60;;;6.93;;
5125;SDS011;63008;53.112;8.896;2022-10-16T07:41:05;6.60;;;5.50;;
5125;SDS011;63008;53.112;8.896;2022-10-16T07:43:07;9.33;;;6.30;;
5125;SDS011;63008;53.112;8.896;2022-10-16T07:45:08;6.57;;;5.97;;
5125;SDS011;63008;53.112;8.896;2022-10-16T07:47:09;11.57;;;6.20;;
5125;SDS011;63008;53.112;8.896;2022-10-16T07:49:10;6.50;;;5.90;;
5125;SDS011;63008;53.112;8.896;2022-10-16T07:51:12;7.57;;;6.17;;
5125;SDS011;63008;53.112;8.896;2022-10-16T07:53:14;12.90;;;6.10;;
5125;SDS011;63008;53.112;8.896;2022-10-16T07:55:15;6.07;;;5.27;;
5125;SDS011;63008;53.112;8.896;2022-10-16T07:57:16;6.30;;;5.37;;
5125;SDS011;63008;53.112;8.896;2022-10-16T07:59:19;5.57;;;5.10;;
5125;SDS011;63008;53.112;8.896;2022-10-16T08:01:20;6.60;;;5.57;;
5125;SDS011;63008;53.112;8.896;2022-10-16T08:03:22;6.83;;;5.33;;
5125;SDS011;63008;53.112;8.896;2022-10-16T08:05:23;5.47;;;4.83;;
5125;SDS011;63008;53.112;8.896;2022-10-16T08:07:24;6.23;;;4.10;;
5125;SDS011;63008;53.112;8.896;2022-10-16T08:09:25;4.90;;;4.40;;
5125;SDS011;63008;53.112;8.896;2022-10-16T08:11:26;5.07;;;4.67;;
5125;SDS011;63008;53.112;8.896;2022-10-16T08:13:27;4.50;;;4.10;;
5125;SDS011;63008;53.112;8.896;2022-10-16T08:15:28;9.20;;;3.80;;
5125;SDS011;63008;53.112;8.896;2022-10-16T08:17:29;5.90;;;3.50;;
5125;SDS011;63008;53.112;8.896;2022-10-16T08:19:30;3.90;;;3.20;;
5125;SDS011;63008;53.112;8.896;2022-10-16T08:21:32;5.60;;;3.60;;
5125;SDS011;63008;53.112;8.896;2022-10-16T08:23:33;5.43;;;3.70;;
5125;SDS011;63008;53.112;8.896;2022-10-16T08:25:35;3.20;;;2.90;;
5125;SDS011;63008;53.112;8.896;2022-10-16T08:27:39;3.87;;;3.40;;
5125;SDS011;63008;53.112;8.896;2022-10-16T08:29:40;3.40;;;2.83;;
5125;SDS011;63008;53.112;8.896;2022-10-16T08:31:41;3.53;;;2.97;;
5125;SDS011;63008;53.112;8.896;2022-10-16T08:33:43;4.80;;;3.00;;
5125;SDS011;63008;53.112;8.896;2022-10-16T08:35:50;3.93;;;3.53;;
5125;SDS011;63008;53.112;8.896;2022-10-16T08:37:54;5.30;;;2.90;;
5125;SDS011;63008;53.112;8.896;2022-10-16T08:39:55;4.93;;;2.40;;
5125;SDS011;63008;53.112;8.896;2022-10-16T08:42:05;3.07;;;2.43;;
5125;SDS011;63008;53.112;8.896;2022-10-16T08:44:15;4.30;;;2.60;;
5125;SDS011;63008;53.112;8.896;2022-10-16T08:46:46;6.37;;;2.60;;
5125;SDS011;63008;53.112;8.896;2022-10-16T08:49:01;5.87;;;2.57;;
5125;SDS011;63008;53.112;8.896;2022-10-16T08:51:04;4.20;;;2.27;;
5125;SDS011;63008;53.112;8.896;2022-10-16T08:53:06;2.93;;;1.93;;
5125;SDS011;63008;53.112;8.896;2022-10-16T08:55:17;3.80;;;1.97;;
5125;SDS011;63008;53.112;8.896;2022-10-16T08:57:31;2.50;;;1.93;;
5125;SDS011;63008;53.112;8.896;2022-10-16T08:59:34;3.87;;;2.33;;
5125;SDS011;63008;53.112;8.896;2022-10-16T09:01:40;3.87;;;2.80;;
5125;SDS011;63008;53.112;8.896;2022-10-16T09:04:06;3.17;;;2.10;;
5125;SDS011;63008;53.112;8.896;2022-10-16T09:11:25;4.37;;;2.30;;
5125;SDS011;63008;53.112;8.896;2022-10-16T09:16:23;2.37;;;1.40;;
5125;SDS011;63008;53.112;8.896;2022-10-16T09:18:38;2.60;;;2.20;;
5125;SDS011;63008;53.112;8.896;2022-10-16T09:20:51;7.03;;;2.17;;
5125;SDS011;63008;53.112;8.896;2022-10-16T09:25:20;6.20;;;1.77;;
5125;SDS011;63008;53.112;8.896;2022-10-16T09:27:22;3.93;;;1.53;;
5125;SDS011;63008;53.112;8.896;2022-10-16T09:29:23;3.03;;;1.53;;
5125;SDS011;63008;53.112;8.896;2022-10-16T09:31:25;3.93;;;1.73;;
5125;SDS011;63008;53.112;8.896;2022-10-16T09:33:30;2.80;;;1.60;;
5125;SDS011;63008;53.112;8.896;2022-10-16T09:35:46;4.53;;;1.67;;
5125;SDS011;63008;53.112;8.896;2022-10-16T09:37:50;5.43;;;1.50;;
5125;SDS011;63008;53.112;8.896;2022-10-16T09:39:54;8.70;;;2.03;;
5125;SDS011;63008;53.112;8.896;2022-10-16T09:41:55;3.97;;;1.83;;
5125;SDS011;63008;53.112;8.896;2022-10-16T09:43:57;2.00;;;1.47;;
5125;SDS011;63008;53.112;8.896;2022-10-16T09:46:02;3.10;;;1.40;;
5125;SDS011;63008;53.112;8.896;2022-10-16T09:48:21;3.13;;;1.30;;
5125;SDS011;63008;53.112;8.896;2022-10-16T09:50:24;2.23;;;1.13;;
5125;SDS011;63008;53.112;8.896;2022-10-16T09:52:27;4.60;;;1.17;;
5125;SDS011;63008;53.112;8.896;2022-10-16T09:54:29;2.87;;;1.27;;
5125;SDS011;63008;53.112;8.896;2022-10-16T09:56:32;4.03;;;1.17;;
5125;SDS011;63008;53.112;8.896;2022-10-16T09:58:36;2.60;;;1.30;;
5125;SDS011;63008;53.112;8.896;2022-10-16T10:00:39;2.67;;;1.00;;
5125;SDS011;63008;53.112;8.896;2022-10-16T10:02:42;2.60;;;1.20;;
5125;SDS011;63008;53.112;8.896;2022-10-16T10:04:47;5.93;;;1.50;;
5125;SDS011;63008;53.112;8.896;2022-10-16T10:06:51;4.40;;;1.40;;
5125;SDS011;63008;53.112;8.896;2022-10-16T10:09:05;4.63;;;1.10;;
5125;SDS011;63008;53.112;8.896;2022-10-16T10:11:06;4.70;;;1.40;;
5125;SDS011;63008;53.112;8.896;2022-10-16T10:13:17;2.50;;;1.40;;
5125;SDS011;63008;53.112;8.896;2022-10-16T10:15:20;5.47;;;1.40;;
5125;SDS011;63008;53.112;8.896;2022-10-16T10:17:25;2.70;;;1.00;;
5125;SDS011;63008;53.112;8.896;2022-10-16T10:19:28;3.47;;;1.20;;
5125;SDS011;63008;53.112;8.896;2022-10-16T10:21:29;2.80;;;1.23;;
5125;SDS011;63008;53.112;8.896;2022-10-16T10:23:34;3.00;;;1.50;;
5125;SDS011;63008;53.112;8.896;2022-10-16T10:30:07;4.10;;;1.00;;
5125;SDS011;63008;53.112;8.896;2022-10-16T10:36:41;4.67;;;1.23;;
5125;SDS011;63008;53.112;8.896;2022-10-16T10:41:07;4.40;;;1.30;;
5125;SDS011;63008;53.112;8.896;2022-10-16T10:43:34;4.23;;;1.23;;
5125;SDS011;63008;53.112;8.896;2022-10-16T10:45:41;5.40;;;1.23;;
5125;SDS011;63008;53.112;8.896;2022-10-16T10:57:44;4.37;;;0.97;;
5125;SDS011;63008;53.112;8.896;2022-10-16T11:02:29;3.73;;;0.90;;
5125;SDS011;63008;53.112;8.896;2022-10-16T11:07:17;1.97;;;1.00;;
5125;SDS011;63008;53.112;8.896;2022-10-16T11:09:43;1.77;;;0.70;;
5125;SDS011;63008;53.112;8.896;2022-10-16T11:12:01;3.33;;;1.10;;
5125;SDS011;63008;53.112;8.896;2022-10-16T11:14:22;1.63;;;0.93;;
5125;SDS011;63008;53.112;8.896;2022-10-16T11:16:30;5.00;;;1.10;;
5125;SDS011;63008;53.112;8.896;2022-10-16T11:21:14;1.60;;;1.20;;
5125;SDS011;63008;53.112;8.896;2022-10-16T11:23:23;3.87;;;1.17;;
5125;SDS011;63008;53.112;8.896;2022-10-16T11:25:35;5.67;;;1.20;;
5125;SDS011;63008;53.112;8.896;2022-10-16T11:27:41;7.40;;;1.00;;
5125;SDS011;63008;53.112;8.896;2022-10-16T11:29:53;2.60;;;1.07;;
5125;SDS011;63008;53.112;8.896;2022-10-16T11:32:06;3.57;;;1.00;;
5125;SDS011;63008;53.112;8.896;2022-10-16T11:34:28;4.40;;;1.03;;
5125;SDS011;63008;53.112;8.896;2022-10-16T11:36:59;3.63;;;1.00;;
5125;SDS011;63008;53.112;8.896;2022-10-16T11:41:24;4.00;;;1.10;;
5125;SDS011;63008;53.112;8.896;2022-10-16T11:43:41;2.70;;;1.03;;
5125;SDS011;63008;53.112;8.896;2022-10-16T11:45:46;5.33;;;1.13;;
5125;SDS011;63008;53.112;8.896;2022-10-16T11:47:53;5.23;;;1.23;;
5125;SDS011;63008;53.112;8.896;2022-10-16T11:55:17;10.13;;;1.37;;
5125;SDS011;63008;53.112;8.896;2022-10-16T11:57:21;3.53;;;1.10;;
5125;SDS011;63008;53.112;8.896;2022-10-16T11:59:34;4.73;;;1.53;;
5125;SDS011;63008;53.112;8.896;2022-10-16T12:01:50;6.63;;;1.03;;
5125;SDS011;63008;53.112;8.896;2022-10-16T12:06:25;5.83;;;1.20;;
5125;SDS011;63008;53.112;8.896;2022-10-16T12:08:42;4.10;;;1.20;;
5125;SDS011;63008;53.112;8.896;2022-10-16T12:10:45;4.27;;;1.33;;
5125;SDS011;63008;53.112;8.896;2022-10-16T12:12:47;4.23;;;1.27;;
5125;SDS011;63008;53.112;8.896;2022-10-16T12:14:59;3.57;;;1.33;;
5125;SDS011;63008;53.112;8.896;2022-10-16T12:17:02;4.77;;;1.00;;
5125;SDS011;63008;53.112;8.896;2022-10-16T12:19:23;2.20;;;1.00;;
5125;SDS011;63008;53.112;8.896;2022-10-16T12:21:29;4.20;;;1.27;;
5125;SDS011;63008;53.112;8.896;2022-10-16T12:23:38;4.20;;;1.33;;
5125;SDS011;63008;53.112;8.896;2022-10-16T12:25:53;4.60;;;1.20;;
5125;SDS011;63008;53.112;8.896;2022-10-16T12:30:06;6.13;;;1.20;;
5125;SDS011;63008;53.112;8.896;2022-10-16T12:32:22;6.70;;;1.10;;
5125;SDS011;63008;53.112;8.896;2022-10-16T12:34:37;7.63;;;1.57;;
5125;SDS011;63008;53.112;8.896;2022-10-16T12:36:42;2.80;;;1.07;;
5125;SDS011;63008;53.112;8.896;2022-10-16T12:38:49;4.63;;;1.33;;
5125;SDS011;63008;53.112;8.896;2022-10-16T12:40:56;3.43;;;1.03;;
5125;SDS011;63008;53.112;8.896;2022-10-16T12:43:12;3.13;;;0.90;;
5125;SDS011;63008;53.112;8.896;2022-10-16T12:45:27;5.03;;;1.30;;
5125;SDS011;63008;53.112;8.896;2022-10-16T12:49:37;2.27;;;1.13;;
5125;SDS011;63008;53.112;8.896;2022-10-16T12:51:40;5.00;;;1.03;;
5125;SDS011;63008;53.112;8.896;2022-10-16T12:53:42;8.27;;;1.40;;
5125;SDS011;63008;53.112;8.896;2022-10-16T12:55:47;9.30;;;2.10;;
5125;SDS011;63008;53.112;8.896;2022-10-16T12:58:04;4.97;;;1.20;;
5125;SDS011;63008;53.112;8.896;2022-10-16T13:05:35;5.93;;;1.43;;
5125;SDS011;63008;53.112;8.896;2022-10-16T13:09:58;5.50;;;1.10;;
5125;SDS011;63008;53.112;8.896;2022-10-16T13:12:14;3.70;;;1.30;;
5125;SDS011;63008;53.112;8.896;2022-10-16T13:17:01;8.40;;;1.33;;
5125;SDS011;63008;53.112;8.896;2022-10-16T13:19:34;3.13;;;1.50;;
5125;SDS011;63008;53.112;8.896;2022-10-16T13:22:05;2.23;;;0.83;;
5125;SDS011;63008;53.112;8.896;2022-10-16T13:26:34;3.13;;;1.10;;
5125;SDS011;63008;53.112;8.896;2022-10-16T13:29:00;2.63;;;0.87;;
5125;SDS011;63008;53.112;8.896;2022-10-16T13:31:02;5.03;;;1.37;;
5125;SDS011;63008;53.112;8.896;2022-10-16T13:33:06;5.80;;;1.10;;
5125;SDS011;63008;53.112;8.896;2022-10-16T13:35:24;6.83;;;1.60;;
5125;SDS011;63008;53.112;8.896;2022-10-16T13:37:27;3.80;;;1.20;;
5125;SDS011;63008;53.112;8.896;2022-10-16T13:39:29;9.67;;;1.43;;
5125;SDS011;63008;53.112;8.896;2022-10-16T13:41:30;6.67;;;1.50;;
5125;SDS011;63008;53.112;8.896;2022-10-16T13:43:32;4.47;;;1.00;;
5125;SDS011;63008;53.112;8.896;2022-10-16T13:45:36;4.00;;;1.50;;
5125;SDS011;63008;53.112;8.896;2022-10-16T13:47:37;4.27;;;1.37;;
5125;SDS011;63008;53.112;8.896;2022-10-16T13:49:38;7.40;;;1.20;;
5125;SDS011;63008;53.112;8.896;2022-10-16T13:51:39;5.20;;;1.40;;